createdAt,value
2018-05-24T00:02:05.816Z,51.80
2018-05-24T00:04:33.408Z,51.47
2018-05-24T00:07:01.044Z,51.53
2018-05-24T00:09:28.717Z,53.60
2018-05-24T00:11:58.408Z,48.73
2018-05-24T00:14:25.995Z,50.60
2018-05-24T00:16:53.585Z,51.40
2018-05-24T00:19:21.186Z,53.37
2018-05-24T00:21:49.712Z,57.20
2018-05-24T00:24:17.336Z,60.63
2018-05-24T00:26:46.288Z,57.77
2018-05-24T00:29:13.882Z,61.77
2018-05-24T00:31:41.624Z,60.63
2018-05-24T00:34:10.017Z,60.67
2018-05-24T00:36:58.764Z,63.33
2018-05-24T00:39:27.144Z,57.27
2018-05-24T00:41:56.023Z,61.83
2018-05-24T00:44:23.604Z,61.70
2018-05-24T00:46:52.213Z,59.27
2018-05-24T00:49:20.567Z,59.13
2018-05-24T00:51:48.511Z,60.77
2018-05-24T00:54:16.091Z,65.30
2018-05-24T00:56:44.951Z,63.27
2018-05-24T00:59:12.516Z,66.07
2018-05-24T01:01:40.890Z,61.77
2018-05-24T01:04:08.494Z,69.80
2018-05-24T01:06:36.078Z,69.20
2018-05-24T01:09:03.714Z,65.73
2018-05-24T01:11:31.475Z,69.50
2018-05-24T01:13:59.053Z,64.97
2018-05-24T01:16:27.587Z,65.63
2018-05-24T01:18:55.153Z,67.17
2018-05-24T01:21:22.842Z,65.70
2018-05-24T01:23:50.419Z,68.60
2018-05-24T01:26:19.876Z,66.00
2018-05-24T01:28:48.242Z,66.70
2018-05-24T01:31:15.795Z,67.90
2018-05-24T01:33:43.379Z,67.10
2018-05-24T01:36:10.949Z,68.50
2018-05-24T01:38:38.575Z,64.10
2018-05-24T01:41:07.336Z,62.60
2018-05-24T01:43:34.934Z,64.17
2018-05-24T01:46:03.711Z,55.87
2018-05-24T01:48:31.318Z,55.17
2018-05-24T01:50:59.994Z,54.57
2018-05-24T01:53:27.597Z,52.93
2018-05-24T01:55:55.234Z,54.30
2018-05-24T01:58:22.804Z,54.37
2018-05-24T02:00:51.733Z,55.37
2018-05-24T02:03:20.119Z,57.50
2018-05-24T02:05:48.446Z,58.57
2018-05-24T02:08:16.021Z,54.60
2018-05-24T02:10:44.372Z,53.93
2018-05-24T02:13:11.939Z,53.90
2018-05-24T02:15:40.919Z,59.20
2018-05-24T02:18:09.417Z,57.10
2018-05-24T02:20:36.973Z,64.60
2018-05-24T02:23:04.621Z,55.07
2018-05-24T02:25:32.228Z,53.90
2018-05-24T02:27:59.785Z,55.87
2018-05-24T02:30:27.784Z,55.80
2018-05-24T02:32:55.368Z,81.23
2018-05-24T02:35:24.116Z,57.43
2018-05-24T02:37:52.448Z,57.87
2018-05-24T02:40:20.565Z,55.70
2018-05-24T02:42:48.913Z,62.53
2018-05-24T02:45:18.092Z,63.23
2018-05-24T02:47:45.706Z,67.83
2018-05-24T02:50:13.329Z,60.00
2018-05-24T02:52:40.956Z,58.90
2018-05-24T02:55:08.536Z,60.87
2018-05-24T02:57:36.109Z,62.70
2018-05-24T03:00:03.685Z,68.43
2018-05-24T03:02:32.571Z,73.97
2018-05-24T03:05:00.921Z,77.43
2018-05-24T03:07:28.480Z,72.57
2018-05-24T03:09:56.055Z,70.43
2018-05-24T03:12:23.633Z,73.10
2018-05-24T03:14:51.974Z,57.03
2018-05-24T03:17:19.856Z,69.73
2018-05-24T03:19:47.717Z,57.63
2018-05-24T03:22:17.031Z,60.07
2018-05-24T03:24:45.529Z,60.63
2018-05-24T03:27:13.875Z,55.07
2018-05-24T03:29:41.473Z,62.00
2018-05-24T03:32:09.809Z,61.97
2018-05-24T03:34:37.372Z,62.00
2018-05-24T03:37:04.945Z,63.23
2018-05-24T03:39:32.598Z,62.30
2018-05-24T03:42:00.141Z,55.33
2018-05-24T03:44:27.753Z,54.63
2018-05-24T03:46:55.323Z,54.07
2018-05-24T03:49:22.917Z,56.27
2018-05-24T03:51:51.949Z,53.97
2018-05-24T03:54:19.642Z,55.77
2018-05-24T03:56:49.113Z,54.53
2018-05-24T04:02:49.826Z,50.30
2018-05-24T04:05:34.263Z,51.50
2018-05-24T04:08:02.753Z,48.50
2018-05-24T04:10:30.305Z,49.17
2018-05-24T04:12:58.766Z,50.40
2018-05-24T04:15:29.640Z,49.43
2018-05-24T04:17:57.944Z,46.83
2018-05-24T04:20:26.223Z,46.73
2018-05-24T04:22:53.756Z,49.10
2018-05-24T04:25:21.326Z,48.30
2018-05-24T04:27:48.874Z,50.33
2018-05-24T04:30:16.404Z,53.13
2018-05-24T04:32:43.950Z,58.43
2018-05-24T04:35:11.497Z,71.57
2018-05-24T04:37:39.036Z,70.50
2018-05-24T04:40:07.353Z,67.63
2018-05-24T04:42:34.900Z,61.13
2018-05-24T04:45:03.240Z,54.70
2018-05-24T04:47:30.784Z,57.30
2018-05-24T04:49:58.364Z,53.70
2018-05-24T04:52:25.927Z,52.90
2018-05-24T04:54:53.472Z,55.90
2018-05-24T04:57:21.029Z,58.07
2018-05-24T04:59:48.571Z,56.40
2018-05-24T05:02:16.122Z,56.20
2018-05-24T05:04:43.692Z,56.17
2018-05-24T05:07:11.233Z,55.50
2018-05-24T05:09:38.776Z,50.77
2018-05-24T05:12:06.347Z,52.93
2018-05-24T05:14:34.659Z,52.33
2018-05-24T05:17:03.027Z,59.70
2018-05-24T05:19:30.616Z,61.60
2018-05-24T05:21:58.117Z,58.10
2018-05-24T05:24:26.417Z,52.50
2018-05-24T05:26:54.746Z,56.53
2018-05-24T05:29:22.278Z,56.40
2018-05-24T05:31:49.835Z,53.37
2018-05-24T05:34:17.372Z,54.77
2018-05-24T05:36:45.701Z,53.97
2018-05-24T05:39:13.244Z,47.93
2018-05-24T05:41:40.794Z,50.43
2018-05-24T05:44:08.351Z,42.20
2018-05-24T05:46:35.893Z,38.83
2018-05-24T05:49:03.435Z,41.67
2018-05-24T05:51:30.978Z,42.43
2018-05-24T05:53:58.742Z,43.93
2018-05-24T05:56:26.293Z,41.43
2018-05-24T05:58:53.844Z,43.13
2018-05-24T06:01:22.153Z,41.20
2018-05-24T06:03:49.702Z,43.13
2018-05-24T06:06:17.255Z,43.20
2018-05-24T06:08:44.797Z,41.97
2018-05-24T06:11:13.096Z,39.07
2018-05-24T06:13:41.409Z,40.83
2018-05-24T06:16:08.943Z,42.27
2018-05-24T06:18:36.486Z,41.30
2018-05-24T06:21:04.057Z,39.47
2018-05-24T06:23:32.384Z,40.83
2018-05-24T06:25:59.939Z,38.67
2018-05-24T06:28:28.281Z,40.03
2018-05-24T06:30:56.546Z,39.97
2018-05-24T06:33:24.840Z,40.40
2018-05-24T06:35:53.147Z,42.63
2018-05-24T06:38:21.469Z,38.53
2018-05-24T06:40:49.005Z,37.67
2018-05-24T06:43:16.550Z,35.17
2018-05-24T06:45:44.081Z,38.50
2018-05-24T06:48:11.613Z,40.03
2018-05-24T06:50:39.147Z,36.73
2018-05-24T06:53:06.715Z,37.90
2018-05-24T06:55:34.265Z,34.87
2018-05-24T06:58:02.621Z,34.23
2018-05-24T07:00:30.154Z,34.87
2018-05-24T07:02:57.706Z,33.07
2018-05-24T07:05:26.021Z,35.13
2018-05-24T07:07:53.576Z,35.37
2018-05-24T07:10:21.131Z,37.43
2018-05-24T07:12:48.657Z,38.43
2018-05-24T07:15:17.747Z,38.57
2018-05-24T07:17:49.198Z,38.00
2018-05-24T07:20:17.205Z,35.83
2018-05-24T07:22:45.112Z,35.37
2018-05-24T07:25:13.186Z,35.23
2018-05-24T07:27:41.245Z,32.33
2018-05-24T07:30:09.349Z,30.70
2018-05-24T07:32:36.955Z,32.17
2018-05-24T07:35:04.525Z,31.23
2018-05-24T07:37:32.110Z,27.63
2018-05-24T07:39:59.697Z,28.67
2018-05-24T07:42:28.655Z,26.53
2018-05-24T07:44:56.660Z,26.63
2018-05-24T07:47:25.764Z,27.73
2018-05-24T07:49:54.472Z,23.13
2018-05-24T07:52:22.841Z,24.97
2018-05-24T07:54:50.641Z,24.33
2018-05-24T07:57:18.743Z,28.00
2018-05-24T07:59:46.786Z,25.60
2018-05-24T08:02:14.466Z,25.43
2018-05-24T08:04:42.092Z,24.83
2018-05-24T08:07:09.655Z,24.83
2018-05-24T08:09:37.977Z,25.57
2018-05-24T08:12:05.541Z,24.70
2018-05-24T08:14:33.873Z,24.47
2018-05-24T08:17:01.639Z,22.80
2018-05-24T08:19:29.952Z,23.03
2018-05-24T08:21:57.494Z,20.10
2018-05-24T08:24:25.043Z,19.30
2018-05-24T08:26:52.601Z,20.27
2018-05-24T08:29:20.127Z,22.23
2018-05-24T08:31:47.675Z,21.50
2018-05-24T08:34:15.211Z,21.83
2018-05-24T08:36:42.770Z,27.47
2018-05-24T08:39:11.069Z,25.97
2018-05-24T08:41:38.672Z,24.00
2018-05-24T08:44:06.935Z,25.40
2018-05-24T08:46:34.513Z,27.93
2018-05-24T08:49:02.056Z,29.90
2018-05-24T08:51:29.592Z,30.07
2018-05-24T08:53:57.133Z,32.60
2018-05-24T08:56:24.677Z,30.17
2018-05-24T08:58:52.241Z,27.07
2018-05-24T09:01:19.815Z,32.27
2018-05-24T09:03:47.314Z,37.13
2018-05-24T09:06:14.870Z,34.57
2018-05-24T09:08:43.173Z,36.07
2018-05-24T09:11:11.489Z,37.03
2018-05-24T09:13:39.802Z,37.50
2018-05-24T09:16:07.335Z,38.60
2018-05-24T09:18:34.903Z,41.77
2018-05-24T09:21:03.245Z,33.23
2018-05-24T09:23:31.797Z,25.67
2018-05-24T09:25:59.330Z,20.70
2018-05-24T09:28:26.866Z,20.57
2018-05-24T09:30:54.397Z,20.43
2018-05-24T09:33:21.954Z,18.03
2018-05-24T09:35:49.502Z,14.73
2018-05-24T09:38:17.043Z,17.00
2018-05-24T09:40:44.595Z,14.87
2018-05-24T09:43:12.140Z,12.73
2018-05-24T09:45:40.441Z,13.37
2018-05-24T09:48:08.748Z,13.30
2018-05-24T09:50:36.304Z,10.53
2018-05-24T09:53:03.864Z,12.93
2018-05-24T09:55:31.667Z,10.03
2018-05-24T09:57:59.199Z,9.50
2018-05-24T10:00:26.733Z,9.30
2018-05-24T10:02:54.307Z,8.47
2018-05-24T10:05:21.837Z,7.13
2018-05-24T10:07:49.378Z,6.77
2018-05-24T10:10:16.901Z,8.20
2018-05-24T10:12:45.208Z,8.20
2018-05-24T10:15:12.747Z,7.40
2018-05-24T10:17:40.286Z,7.60
2018-05-24T10:20:07.811Z,8.63
2018-05-24T10:22:35.368Z,8.70
2018-05-24T10:25:03.488Z,9.37
2018-05-24T10:27:31.252Z,9.20
2018-05-24T10:29:58.773Z,7.70
2018-05-24T10:32:26.311Z,8.40
2018-05-24T10:34:53.838Z,9.07
2018-05-24T10:37:21.388Z,8.73
2018-05-24T10:39:48.922Z,9.40
2018-05-24T10:42:16.464Z,8.70
2018-05-24T10:44:43.998Z,9.13
2018-05-24T10:47:13.306Z,8.50
2018-05-24T10:49:40.823Z,8.53
2018-05-24T10:52:08.372Z,9.50
2018-05-24T10:54:35.926Z,9.23
2018-05-24T10:57:03.479Z,9.03
2018-05-24T10:59:31.410Z,9.77
2018-05-24T11:01:59.671Z,9.47
2018-05-24T11:04:27.205Z,8.87
2018-05-24T11:06:54.733Z,9.53
2018-05-24T11:09:23.056Z,9.27
2018-05-24T11:11:50.579Z,8.43
2018-05-24T11:14:18.124Z,8.50
2018-05-24T11:16:45.647Z,8.20
2018-05-24T11:19:13.181Z,9.00
2018-05-24T11:21:40.718Z,8.50
2018-05-24T11:24:08.247Z,9.70
2018-05-24T11:26:35.880Z,10.23
2018-05-24T11:29:03.422Z,7.77
2018-05-24T11:31:31.169Z,8.23
2018-05-24T11:33:58.700Z,8.60
2018-05-24T11:36:26.256Z,9.37
2018-05-24T11:38:53.792Z,10.30
2018-05-24T11:41:21.341Z,8.67
2018-05-24T11:43:48.917Z,9.10
2018-05-24T11:46:17.211Z,9.60
2018-05-24T11:48:45.586Z,10.23
2018-05-24T11:51:13.115Z,9.93
2018-05-24T11:53:40.655Z,9.97
2018-05-24T11:56:08.196Z,9.80
2018-05-24T11:58:35.747Z,9.63
2018-05-24T12:01:03.316Z,9.80
2018-05-24T12:03:30.949Z,10.20
2018-05-24T12:05:58.574Z,10.40
2018-05-24T12:08:26.107Z,10.93
2018-05-24T12:10:53.665Z,10.10
2018-05-24T12:13:21.983Z,10.10
2018-05-24T12:15:49.671Z,10.10
2018-05-24T12:18:17.214Z,8.73
2018-05-24T12:20:44.736Z,8.90
2018-05-24T12:23:13.030Z,9.33
2018-05-24T12:25:41.343Z,9.90
2018-05-24T12:28:09.651Z,11.00
2018-05-24T12:30:37.198Z,8.90
2018-05-24T12:33:04.771Z,9.13
2018-05-24T12:35:32.426Z,7.93
2018-05-24T12:37:59.881Z,7.30
2018-05-24T12:40:27.410Z,8.70
2018-05-24T12:42:54.959Z,8.47
2018-05-24T12:45:22.497Z,7.70
2018-05-24T12:47:50.038Z,7.63
2018-05-24T12:50:17.551Z,6.80
2018-05-24T12:52:45.083Z,6.93
2018-05-24T12:55:12.624Z,7.53
2018-05-24T12:57:40.148Z,7.70
2018-05-24T13:00:08.440Z,7.50
2018-05-24T13:02:36.752Z,6.57
2018-05-24T13:05:05.081Z,6.80
2018-05-24T13:07:32.741Z,7.50
2018-05-24T13:10:01.045Z,7.10
2018-05-24T13:12:29.497Z,7.87
2018-05-24T13:14:57.030Z,5.77
2018-05-24T13:17:25.328Z,5.77
2018-05-24T13:19:53.610Z,6.17
2018-05-24T13:22:21.181Z,6.20
2018-05-24T13:24:48.703Z,6.50
2018-05-24T13:27:16.997Z,6.60
2018-05-24T13:29:45.640Z,6.77
2018-05-24T13:32:13.162Z,6.60
2018-05-24T13:34:40.702Z,7.40
2018-05-24T13:37:08.240Z,7.10
2018-05-24T13:39:35.782Z,6.43
2018-05-24T13:42:03.368Z,7.13
2018-05-24T13:44:30.902Z,6.97
2018-05-24T13:46:59.201Z,7.07
2018-05-24T13:49:26.754Z,6.47
2018-05-24T13:51:54.277Z,7.07
2018-05-24T13:54:22.583Z,6.50
2018-05-24T13:56:50.883Z,7.53
2018-05-24T13:59:19.179Z,8.40
2018-05-24T14:01:47.711Z,8.07
2018-05-24T14:04:15.213Z,9.27
2018-05-24T14:06:42.749Z,9.03
2018-05-24T14:09:10.280Z,8.80
2018-05-24T14:11:37.808Z,8.90
2018-05-24T14:14:05.366Z,8.83
2018-05-24T14:16:33.341Z,8.97
2018-05-24T14:19:00.896Z,11.13
2018-05-24T14:21:28.444Z,8.83
2018-05-24T14:23:55.977Z,8.10
2018-05-24T14:26:23.504Z,7.43
2018-05-24T14:28:51.088Z,5.30
2018-05-24T14:31:18.594Z,4.37
2018-05-24T14:33:46.129Z,3.83
2018-05-24T14:36:13.668Z,3.77
2018-05-24T14:38:41.215Z,3.50
2018-05-24T14:41:08.738Z,3.00
2018-05-24T14:43:37.050Z,2.50
2018-05-24T14:46:05.355Z,2.63
2018-05-24T14:48:33.683Z,2.20
2018-05-24T14:51:01.202Z,1.97
2018-05-24T14:53:28.738Z,1.83
2018-05-24T14:55:56.301Z,2.47
2018-05-24T14:58:24.596Z,2.40
2018-05-24T15:00:52.914Z,2.33
2018-05-24T15:03:21.224Z,2.03
2018-05-24T15:05:48.749Z,2.40
2018-05-24T15:08:16.290Z,2.20
2018-05-24T15:10:47.313Z,2.17
2018-05-24T15:16:15.952Z,2.37
2018-05-24T15:18:43.477Z,2.60
2018-05-24T15:21:11.775Z,2.30
2018-05-24T15:23:39.317Z,2.30
2018-05-24T15:26:06.841Z,1.93
2018-05-24T15:28:34.388Z,2.43
2018-05-24T15:31:03.104Z,1.70
2018-05-24T15:33:30.631Z,1.87
2018-05-24T15:35:58.925Z,1.70
2018-05-24T15:38:26.452Z,1.80
2018-05-24T15:40:53.975Z,1.90
2018-05-24T15:43:21.518Z,1.87
2018-05-24T15:45:49.042Z,1.80
2018-05-24T15:48:16.563Z,1.90
2018-05-24T15:50:44.108Z,2.10
2018-05-24T15:53:11.645Z,2.00
2018-05-24T15:55:39.176Z,2.13
2018-05-24T15:58:06.703Z,1.87
2018-05-24T16:00:34.257Z,2.23
2018-05-24T16:03:01.924Z,2.03
2018-05-24T16:05:29.453Z,1.70
2018-05-24T16:07:56.989Z,1.80
2018-05-24T16:10:24.522Z,2.20
2018-05-24T16:12:52.048Z,1.80
2018-05-24T16:15:19.589Z,2.50
2018-05-24T16:17:47.115Z,3.23
2018-05-24T16:20:14.648Z,3.30
2018-05-24T16:22:42.939Z,3.80
2018-05-24T16:25:11.240Z,3.70
2018-05-24T16:27:38.777Z,4.17
2018-05-24T16:30:06.316Z,3.93
2018-05-24T16:32:34.710Z,3.60
2018-05-24T16:35:03.185Z,4.07
2018-05-24T16:37:30.723Z,4.73
2018-05-24T16:39:58.311Z,5.10
2018-05-24T16:42:25.784Z,5.50
2018-05-24T16:44:54.090Z,5.20
2018-05-24T16:47:21.633Z,5.13
2018-05-24T16:49:49.159Z,5.30
2018-05-24T16:52:16.689Z,5.50
2018-05-24T16:54:44.232Z,5.27
2018-05-24T16:57:11.747Z,5.77
2018-05-24T16:59:39.287Z,7.33
2018-05-24T17:02:07.609Z,7.63
2018-05-24T17:04:35.164Z,7.60
2018-05-24T17:07:03.453Z,8.03
2018-05-24T17:09:30.998Z,6.83
2018-05-24T17:11:59.860Z,6.80
2018-05-24T17:14:28.161Z,9.27
2018-05-24T17:16:56.449Z,8.47
2018-05-24T17:19:23.989Z,9.10
2018-05-24T17:21:51.521Z,10.50
2018-05-24T17:24:19.051Z,9.70
2018-05-24T17:26:46.576Z,8.90
2018-05-24T17:29:14.134Z,8.37
2018-05-24T17:31:41.667Z,8.03
2018-05-24T17:34:09.286Z,8.33
2018-05-24T17:36:36.818Z,9.87
2018-05-24T17:39:04.410Z,11.23
2018-05-24T17:41:32.549Z,9.87
2018-05-24T17:44:00.131Z,9.67
2018-05-24T17:46:27.671Z,9.67
2018-05-24T17:48:55.213Z,10.40
2018-05-24T17:51:22.764Z,11.97
2018-05-24T17:53:51.087Z,13.97
2018-05-24T17:56:18.648Z,14.00
2018-05-24T17:58:46.958Z,16.13
2018-05-24T18:01:15.271Z,15.50
2018-05-24T18:03:42.796Z,16.30
2018-05-24T18:06:10.338Z,16.23
2018-05-24T18:08:37.951Z,17.70
2018-05-24T18:11:05.522Z,19.00
2018-05-24T18:13:33.993Z,19.67
2018-05-24T18:16:02.337Z,20.33
2018-05-24T18:18:29.880Z,21.67
2018-05-24T18:20:58.184Z,20.70
2018-05-24T18:23:26.472Z,17.87
2018-05-24T18:25:54.008Z,17.90
2018-05-24T18:28:21.585Z,19.47
2018-05-24T18:30:49.128Z,20.90
2018-05-24T18:33:17.425Z,19.87
2018-05-24T18:35:44.961Z,19.93
2018-05-24T18:38:13.259Z,29.17
2018-05-24T18:40:40.792Z,21.63
2018-05-24T18:43:08.310Z,21.13
2018-05-24T18:45:35.862Z,10.83
2018-05-24T18:48:03.414Z,8.53
2018-05-24T18:50:31.200Z,8.10
2018-05-24T18:52:58.715Z,8.13
2018-05-24T18:55:26.249Z,7.57
2018-05-24T18:57:53.771Z,6.37
2018-05-24T19:00:21.327Z,6.67
2018-05-24T19:02:48.860Z,4.10
2018-05-24T19:05:17.167Z,4.40
2018-05-24T19:07:45.478Z,4.27
2018-05-24T19:10:13.776Z,5.37
2018-05-24T19:12:42.072Z,6.30
2018-05-24T19:15:09.607Z,5.90
2018-05-24T19:17:37.160Z,5.63
2018-05-24T19:20:04.724Z,6.67
2018-05-24T19:22:34.035Z,7.50
2018-05-24T19:25:01.616Z,7.83
2018-05-24T19:27:29.947Z,7.90
2018-05-24T19:30:02.053Z,9.73
2018-05-24T19:32:30.329Z,11.07
2018-05-24T19:34:57.870Z,11.13
2018-05-24T19:37:26.311Z,12.03
2018-05-24T19:39:53.852Z,12.07
2018-05-24T19:42:22.746Z,9.80
2018-05-24T19:44:51.035Z,11.70
2018-05-24T19:47:19.351Z,11.47
2018-05-24T19:49:46.892Z,13.00
2018-05-24T19:52:14.469Z,12.67
2018-05-24T19:54:42.064Z,10.47
2018-05-24T19:57:09.599Z,9.30
2018-05-24T19:59:37.135Z,10.97
2018-05-24T20:02:04.693Z,11.77
2018-05-24T20:04:32.233Z,11.77
2018-05-24T20:06:59.772Z,12.10
2018-05-24T20:09:27.308Z,12.03
2018-05-24T20:11:54.852Z,10.97
2018-05-24T20:14:22.408Z,7.77
2018-05-24T20:16:49.971Z,8.47
2018-05-24T20:19:17.499Z,10.30
2018-05-24T20:21:45.037Z,10.63
2018-05-24T20:24:12.561Z,8.90
2018-05-24T20:26:45.964Z,10.40
2018-05-24T20:29:13.484Z,9.97
2018-05-24T20:31:41.802Z,10.23
2018-05-24T20:34:10.093Z,8.67
2018-05-24T20:36:38.421Z,10.07
2018-05-24T20:39:05.998Z,11.27
2018-05-24T20:41:34.373Z,9.60
2018-05-24T20:44:02.035Z,9.53
2018-05-24T20:46:29.572Z,10.40
2018-05-24T20:48:57.130Z,7.67
2018-05-24T20:51:24.652Z,7.23
2018-05-24T20:53:52.200Z,9.23
2018-05-24T20:56:20.599Z,8.87
2018-05-24T20:58:48.106Z,8.33
2018-05-24T21:01:15.652Z,7.90
2018-05-24T21:03:43.191Z,8.57
2018-05-24T21:06:10.746Z,9.33
2018-05-24T21:08:39.049Z,9.03
2018-05-24T21:11:07.350Z,9.03
2018-05-24T21:13:35.668Z,8.87
2018-05-24T21:16:03.268Z,8.30
2018-05-24T21:18:32.589Z,9.63
2018-05-24T21:21:00.110Z,7.23
2018-05-24T21:23:27.629Z,8.30
2018-05-24T21:25:55.934Z,6.80
2018-05-24T21:28:24.233Z,7.40
2018-05-24T21:30:52.551Z,6.53
2018-05-24T21:33:20.082Z,7.30
2018-05-24T21:35:47.652Z,6.93
2018-05-24T21:38:15.972Z,7.43
2018-05-24T21:40:43.521Z,8.50
2018-05-24T21:43:11.047Z,8.27
2018-05-24T21:45:38.588Z,9.30
2018-05-24T21:48:06.127Z,8.90
2018-05-24T21:50:33.700Z,10.07
2018-05-24T21:53:01.245Z,9.50
2018-05-24T21:55:28.770Z,9.83
2018-05-24T21:57:56.324Z,9.57
2018-05-24T22:00:23.854Z,9.73
2018-05-24T22:02:51.463Z,10.63
2018-05-24T22:05:19.009Z,10.17
2018-05-24T22:07:46.545Z,11.63
2018-05-24T22:10:14.076Z,11.90
2018-05-24T22:12:41.613Z,11.63
2018-05-24T22:15:09.150Z,11.73
2018-05-24T22:17:36.716Z,11.60
2018-05-24T22:20:04.258Z,11.13
2018-05-24T22:22:32.969Z,12.67
2018-05-24T22:25:00.516Z,12.90
2018-05-24T22:27:28.055Z,14.50
2018-05-24T22:29:55.587Z,14.83
2018-05-24T22:32:23.143Z,15.57
2018-05-24T22:34:50.706Z,16.60
2018-05-24T22:37:18.242Z,14.47
2018-05-24T22:39:45.788Z,13.93
2018-05-24T22:42:13.329Z,16.20
2018-05-24T22:44:40.858Z,12.73
2018-05-24T22:47:08.408Z,18.17
2018-05-24T22:49:35.975Z,15.83
2018-05-24T22:52:03.519Z,15.77
2018-05-24T22:54:31.669Z,15.43
2018-05-24T22:56:59.203Z,27.63
2018-05-24T22:59:26.784Z,12.20
2018-05-24T23:01:54.299Z,14.40
2018-05-24T23:04:22.628Z,17.47
2018-05-24T23:06:50.183Z,20.20
2018-05-24T23:09:18.492Z,17.63
2018-05-24T23:11:46.807Z,15.73
2018-05-24T23:14:15.109Z,16.30
2018-05-24T23:16:42.655Z,14.37
2018-05-24T23:19:10.225Z,14.30
2018-05-24T23:21:37.759Z,15.00
2018-05-24T23:24:06.075Z,17.87
2018-05-24T23:26:38.440Z,14.80
2018-05-24T23:29:05.975Z,14.10
2018-05-24T23:31:33.525Z,12.47
2018-05-24T23:34:01.170Z,14.37
2018-05-24T23:36:28.721Z,16.53
2018-05-24T23:38:56.253Z,16.50
2018-05-24T23:41:23.796Z,16.97
2018-05-24T23:43:51.335Z,17.13
2018-05-24T23:46:19.640Z,16.37
2018-05-24T23:48:47.946Z,16.43
2018-05-24T23:51:15.479Z,16.73
2018-05-24T23:53:43.039Z,17.40
2018-05-24T23:56:10.572Z,16.57
2018-05-24T23:58:38.121Z,16.53
